createdAt,value
2018-12-31T00:01:57.054Z,47.60
2018-12-31T00:04:26.400Z,44.33
2018-12-31T00:06:55.780Z,47.53
2018-12-31T00:09:25.039Z,45.25
2018-12-31T00:11:54.378Z,42.40
2018-12-31T00:14:23.641Z,48.78
2018-12-31T00:16:52.890Z,49.13
2018-12-31T00:19:22.218Z,50.92
2018-12-31T00:21:51.383Z,50.15
2018-12-31T00:24:20.645Z,52.00
2018-12-31T00:26:49.868Z,46.83
2018-12-31T00:29:19.122Z,47.40
2018-12-31T00:31:48.315Z,48.52
2018-12-31T00:34:18.112Z,47.50
2018-12-31T00:36:47.279Z,47.83
2018-12-31T00:39:16.779Z,47.83
2018-12-31T00:41:46.090Z,45.43
2018-12-31T00:44:15.273Z,41.88
2018-12-31T00:46:46.368Z,42.05
2018-12-31T00:49:15.694Z,44.63
2018-12-31T00:51:44.929Z,40.35
2018-12-31T00:54:14.117Z,43.23
2018-12-31T00:56:43.498Z,41.77
2018-12-31T00:59:12.754Z,43.78
2018-12-31T01:01:42.954Z,40.48
2018-12-31T01:04:12.188Z,41.58
2018-12-31T01:06:41.424Z,43.20
2018-12-31T01:09:10.584Z,40.85
2018-12-31T01:11:39.800Z,40.67
2018-12-31T01:14:09.108Z,41.20
2018-12-31T01:16:38.428Z,39.78
2018-12-31T01:19:07.626Z,38.60
2018-12-31T01:21:36.856Z,39.95
2018-12-31T01:24:06.077Z,38.98
2018-12-31T01:26:35.368Z,38.33
2018-12-31T01:29:04.612Z,37.48
2018-12-31T01:31:33.982Z,36.83
2018-12-31T01:34:04.714Z,38.90
2018-12-31T01:36:33.886Z,35.20
2018-12-31T01:39:04.463Z,40.20
2018-12-31T01:41:33.828Z,40.10
2018-12-31T01:44:03.114Z,40.88
2018-12-31T01:46:32.365Z,37.50
2018-12-31T01:49:01.856Z,38.83
2018-12-31T01:51:31.104Z,41.88
2018-12-31T01:54:00.281Z,37.48
2018-12-31T01:56:29.917Z,37.35
2018-12-31T01:58:59.088Z,36.38
2018-12-31T02:01:28.261Z,39.30
2018-12-31T02:03:57.473Z,39.53
2018-12-31T02:06:26.701Z,37.20
2018-12-31T02:08:55.970Z,35.43
2018-12-31T02:11:25.308Z,37.20
2018-12-31T02:13:54.754Z,34.05
2018-12-31T02:16:23.955Z,34.45
2018-12-31T02:18:53.252Z,33.60
2018-12-31T02:21:22.438Z,32.67
2018-12-31T02:23:51.745Z,34.80
2018-12-31T02:26:21.145Z,33.42
2018-12-31T02:28:50.330Z,33.73
2018-12-31T02:31:19.590Z,33.83
2018-12-31T02:33:48.980Z,28.75
2018-12-31T02:36:18.224Z,30.72
2018-12-31T02:38:47.408Z,30.32
2018-12-31T02:41:16.601Z,31.75
2018-12-31T02:43:45.774Z,30.72
2018-12-31T02:46:14.952Z,30.27
2018-12-31T02:48:44.216Z,27.40
2018-12-31T02:51:13.409Z,27.48
2018-12-31T02:53:42.668Z,28.07
2018-12-31T02:56:11.872Z,26.73
2018-12-31T02:58:41.068Z,27.80
2018-12-31T03:01:10.580Z,27.52
2018-12-31T03:03:39.815Z,23.52
2018-12-31T03:06:09.045Z,24.92
2018-12-31T03:08:38.291Z,26.90
2018-12-31T03:11:07.524Z,24.43
2018-12-31T03:13:36.765Z,26.50
2018-12-31T03:16:05.950Z,26.55
2018-12-31T03:18:35.189Z,25.20
2018-12-31T03:21:04.406Z,26.65
2018-12-31T03:23:33.656Z,24.43
2018-12-31T03:26:02.890Z,24.05
2018-12-31T03:28:32.141Z,25.90
2018-12-31T03:31:01.366Z,24.20
2018-12-31T03:33:30.659Z,24.65
2018-12-31T03:35:59.842Z,23.92
2018-12-31T03:38:29.089Z,24.32
2018-12-31T03:40:58.300Z,22.70
2018-12-31T03:43:27.473Z,25.08
2018-12-31T03:45:56.659Z,26.27
2018-12-31T03:48:25.944Z,23.42
2018-12-31T03:50:55.196Z,21.60
2018-12-31T03:53:24.451Z,21.75
2018-12-31T03:55:53.649Z,22.42
2018-12-31T03:58:22.816Z,22.82
2018-12-31T04:00:52.016Z,22.62
2018-12-31T04:03:21.225Z,21.68
2018-12-31T04:05:50.476Z,23.25
2018-12-31T04:08:19.723Z,19.62
2018-12-31T04:10:48.998Z,24.72
2018-12-31T04:13:18.259Z,20.60
2018-12-31T04:15:47.503Z,19.23
2018-12-31T04:18:16.775Z,23.57
2018-12-31T04:20:45.956Z,23.12
2018-12-31T04:23:15.213Z,21.00
2018-12-31T04:25:44.519Z,23.05
2018-12-31T04:28:13.705Z,20.90
2018-12-31T04:30:42.945Z,23.32
2018-12-31T04:33:12.266Z,20.23
2018-12-31T04:35:41.517Z,22.55
2018-12-31T04:38:10.761Z,21.77
2018-12-31T04:40:39.996Z,22.05
2018-12-31T04:43:09.251Z,22.25
2018-12-31T04:45:38.505Z,22.20
2018-12-31T04:48:07.949Z,21.55
2018-12-31T04:50:37.217Z,21.20
2018-12-31T04:53:06.506Z,24.43
2018-12-31T04:55:44.053Z,23.02
2018-12-31T04:58:06.773Z,24.32
2018-12-31T05:00:36.038Z,23.30
2018-12-31T05:03:05.240Z,23.62
2018-12-31T05:05:34.687Z,28.07
2018-12-31T05:08:03.865Z,25.57
2018-12-31T05:10:33.066Z,26.25
2018-12-31T05:13:02.768Z,27.10
2018-12-31T05:15:32.017Z,29.02
2018-12-31T05:18:01.731Z,29.05
2018-12-31T05:20:30.903Z,27.93
2018-12-31T05:23:00.169Z,29.18
2018-12-31T05:25:29.372Z,35.70
2018-12-31T05:27:58.662Z,32.67
2018-12-31T05:30:27.884Z,33.67
2018-12-31T05:32:57.102Z,33.90
2018-12-31T05:35:26.472Z,33.98
2018-12-31T05:37:55.659Z,35.55
2018-12-31T05:40:24.939Z,36.90
2018-12-31T05:42:54.115Z,37.17
2018-12-31T05:45:23.396Z,37.73
2018-12-31T05:47:52.640Z,38.42
2018-12-31T05:50:21.840Z,39.20
2018-12-31T05:52:51.105Z,37.90
2018-12-31T05:55:20.628Z,34.43
2018-12-31T05:57:49.800Z,37.88
2018-12-31T06:00:19.164Z,39.88
2018-12-31T06:02:48.386Z,39.83
2018-12-31T06:05:17.641Z,40.30
2018-12-31T06:07:46.833Z,39.65
2018-12-31T06:10:16.185Z,44.05
2018-12-31T06:12:45.380Z,45.38
2018-12-31T06:15:14.559Z,43.55
2018-12-31T06:17:43.760Z,39.95
2018-12-31T06:20:12.939Z,41.37
2018-12-31T06:22:42.126Z,49.18
2018-12-31T06:25:11.343Z,47.30
2018-12-31T06:27:40.537Z,48.95
2018-12-31T06:30:09.789Z,46.00
2018-12-31T06:32:39.010Z,50.15
2018-12-31T06:35:08.194Z,47.50
2018-12-31T06:37:37.621Z,51.90
2018-12-31T06:40:07.452Z,44.50
2018-12-31T06:42:36.645Z,49.42
2018-12-31T06:45:05.825Z,50.30
2018-12-31T06:47:35.194Z,46.92
2018-12-31T06:50:05.143Z,48.23
2018-12-31T06:52:34.308Z,49.30
2018-12-31T06:55:03.712Z,49.67
2018-12-31T06:57:32.906Z,47.93
2018-12-31T07:00:02.167Z,50.00
2018-12-31T07:02:31.470Z,45.85
2018-12-31T07:05:00.744Z,45.70
2018-12-31T07:07:30.009Z,49.42
2018-12-31T07:09:59.238Z,47.50
2018-12-31T07:12:28.425Z,47.17
2018-12-31T07:14:57.691Z,49.67
2018-12-31T07:17:26.890Z,51.25
2018-12-31T07:19:56.161Z,48.23
2018-12-31T07:22:25.341Z,48.85
2018-12-31T07:24:54.624Z,51.80
2018-12-31T07:27:23.883Z,49.27
2018-12-31T07:29:53.139Z,49.58
2018-12-31T07:32:22.373Z,50.73
2018-12-31T07:34:51.681Z,51.33
2018-12-31T07:37:20.859Z,47.73
2018-12-31T07:39:50.155Z,46.83
2018-12-31T07:42:19.511Z,49.93
2018-12-31T07:44:48.779Z,49.75
2018-12-31T07:47:18.004Z,44.67
2018-12-31T07:49:47.374Z,49.70
2018-12-31T07:52:16.659Z,45.40
2018-12-31T07:54:45.894Z,52.15
2018-12-31T07:57:15.156Z,49.65
2018-12-31T07:59:44.419Z,46.80
2018-12-31T08:02:13.648Z,44.70
2018-12-31T08:04:42.910Z,42.78
2018-12-31T08:07:12.684Z,37.42
2018-12-31T08:09:42.024Z,39.42
2018-12-31T08:12:11.660Z,39.80
2018-12-31T08:14:40.929Z,39.40
2018-12-31T08:17:10.183Z,40.30
2018-12-31T08:19:39.423Z,38.88
2018-12-31T08:22:08.745Z,48.15
2018-12-31T08:24:38.131Z,38.00
2018-12-31T08:27:07.460Z,38.35
2018-12-31T08:29:36.744Z,39.65
2018-12-31T08:32:06.088Z,41.48
2018-12-31T08:34:35.456Z,40.03
2018-12-31T08:37:04.796Z,39.05
2018-12-31T08:39:34.069Z,38.92
2018-12-31T08:42:03.396Z,40.55
2018-12-31T08:44:32.581Z,40.23
2018-12-31T08:47:01.874Z,41.42
2018-12-31T08:49:31.123Z,40.70
2018-12-31T08:52:00.408Z,38.25
2018-12-31T08:54:30.602Z,41.80
2018-12-31T08:56:59.916Z,40.73
2018-12-31T08:59:29.344Z,40.03
2018-12-31T09:01:58.553Z,41.15
2018-12-31T09:04:27.804Z,42.23
2018-12-31T09:06:57.081Z,43.80
2018-12-31T09:09:26.576Z,45.38
2018-12-31T09:11:55.765Z,44.85
2018-12-31T09:14:25.062Z,43.80
2018-12-31T09:16:54.460Z,44.33
2018-12-31T09:19:23.736Z,43.80
2018-12-31T09:21:53.032Z,44.83
2018-12-31T09:24:22.239Z,46.42
2018-12-31T09:26:51.410Z,40.40
2018-12-31T09:29:20.623Z,43.28
2018-12-31T09:31:50.001Z,42.45
2018-12-31T09:34:19.261Z,42.53
2018-12-31T09:36:48.451Z,40.65
2018-12-31T09:39:17.870Z,40.30
2018-12-31T09:41:47.091Z,39.45
2018-12-31T09:44:16.415Z,40.80
2018-12-31T09:46:45.704Z,37.23
2018-12-31T09:49:15.002Z,37.40
2018-12-31T09:51:44.306Z,38.20
2018-12-31T09:54:13.591Z,36.42
2018-12-31T09:56:42.839Z,34.75
2018-12-31T09:59:12.023Z,34.58
2018-12-31T10:01:41.237Z,30.77
2018-12-31T10:04:10.417Z,35.50
2018-12-31T10:06:39.637Z,33.98
2018-12-31T10:09:08.831Z,35.10
2018-12-31T10:11:38.087Z,34.85
2018-12-31T10:14:07.435Z,33.73
2018-12-31T10:16:36.721Z,31.70
2018-12-31T10:19:06.060Z,34.90
2018-12-31T10:21:41.002Z,31.73
2018-12-31T10:24:06.321Z,29.87
2018-12-31T10:26:35.674Z,32.35
2018-12-31T10:29:05.020Z,35.30
2018-12-31T10:31:34.457Z,32.00
2018-12-31T10:34:03.696Z,33.30
2018-12-31T10:36:32.948Z,34.03
2018-12-31T10:39:02.246Z,33.08
2018-12-31T10:41:31.506Z,32.80
2018-12-31T10:44:00.892Z,34.25
2018-12-31T10:46:30.482Z,33.90
2018-12-31T10:48:59.787Z,33.50
2018-12-31T10:51:29.005Z,34.13
2018-12-31T10:53:58.385Z,34.10
2018-12-31T10:56:27.826Z,32.20
2018-12-31T10:58:57.096Z,35.48
2018-12-31T11:01:26.384Z,32.08
2018-12-31T11:03:55.601Z,30.62
2018-12-31T11:06:24.946Z,32.28
2018-12-31T11:08:54.233Z,33.40
2018-12-31T11:11:23.494Z,31.57
2018-12-31T11:13:52.843Z,35.55
2018-12-31T11:16:22.096Z,36.60
2018-12-31T11:18:51.303Z,30.20
2018-12-31T11:21:20.543Z,34.80
2018-12-31T11:23:49.975Z,33.98
2018-12-31T11:26:19.313Z,34.95
2018-12-31T11:28:48.626Z,33.10
2018-12-31T11:31:17.987Z,31.73
2018-12-31T11:33:47.175Z,33.10
2018-12-31T11:36:16.393Z,35.03
2018-12-31T11:38:45.817Z,32.23
2018-12-31T11:41:15.087Z,35.35
2018-12-31T11:43:44.578Z,32.70
2018-12-31T11:46:13.869Z,33.70
2018-12-31T11:48:43.127Z,35.95
2018-12-31T11:51:12.363Z,35.43
2018-12-31T11:53:41.631Z,36.35
2018-12-31T11:56:10.832Z,34.67
2018-12-31T11:58:40.289Z,34.65
2018-12-31T12:01:09.885Z,33.75
2018-12-31T12:03:39.177Z,31.40
2018-12-31T12:06:08.476Z,31.95
2018-12-31T12:08:37.828Z,35.83
2018-12-31T12:11:07.117Z,39.00
2018-12-31T12:13:36.488Z,35.90
2018-12-31T12:16:05.873Z,35.68
2018-12-31T12:18:35.222Z,34.88
2018-12-31T12:21:04.561Z,36.58
2018-12-31T12:23:33.865Z,39.53
2018-12-31T12:26:03.158Z,32.50
2018-12-31T12:28:32.437Z,35.85
2018-12-31T12:31:01.808Z,36.03
2018-12-31T12:33:31.061Z,37.35
2018-12-31T12:36:00.330Z,35.75
2018-12-31T12:38:29.658Z,31.15
2018-12-31T12:40:58.929Z,32.78
2018-12-31T12:43:28.199Z,34.23
2018-12-31T12:45:57.491Z,32.60
2018-12-31T12:48:27.258Z,29.42
2018-12-31T12:50:56.513Z,31.48
2018-12-31T12:53:25.919Z,31.73
2018-12-31T12:55:55.112Z,31.30
2018-12-31T12:58:24.533Z,29.90
2018-12-31T13:00:54.159Z,31.85
2018-12-31T13:03:23.412Z,29.57
2018-12-31T13:05:52.674Z,28.65
2018-12-31T13:08:21.974Z,31.77
2018-12-31T13:10:51.246Z,30.02
2018-12-31T13:13:20.566Z,31.77
2018-12-31T13:15:49.868Z,28.10
2018-12-31T13:18:19.127Z,28.23
2018-12-31T13:20:48.463Z,30.10
2018-12-31T13:23:17.817Z,27.77
2018-12-31T13:25:47.158Z,27.73
2018-12-31T13:28:16.514Z,25.92
2018-12-31T13:33:21.192Z,26.50
2018-12-31T13:35:50.773Z,27.60
2018-12-31T13:38:20.055Z,24.47
2018-12-31T13:40:49.388Z,26.87
2018-12-31T13:43:18.710Z,24.75
2018-12-31T13:45:47.981Z,22.93
2018-12-31T13:48:17.561Z,24.87
2018-12-31T13:50:46.953Z,23.73
2018-12-31T13:53:16.300Z,24.77
2018-12-31T13:55:45.607Z,22.95
2018-12-31T13:58:14.903Z,24.05
2018-12-31T14:00:44.361Z,20.88
2018-12-31T14:03:17.284Z,26.07
2018-12-31T14:05:44.707Z,24.33
2018-12-31T14:08:13.960Z,25.57
2018-12-31T14:10:43.219Z,22.77
2018-12-31T14:13:12.505Z,20.83
2018-12-31T14:15:41.761Z,21.33
2018-12-31T14:18:11.019Z,20.40
2018-12-31T14:20:40.340Z,21.30
2018-12-31T14:23:10.008Z,21.15
2018-12-31T14:25:39.417Z,24.77
2018-12-31T14:28:09.033Z,22.37
2018-12-31T14:30:38.383Z,23.15
2018-12-31T14:33:07.738Z,22.27
2018-12-31T14:35:37.404Z,20.40
2018-12-31T14:38:06.687Z,20.85
2018-12-31T14:40:35.960Z,20.85
2018-12-31T14:43:05.321Z,20.65
2018-12-31T14:45:34.583Z,21.85
2018-12-31T14:48:04.162Z,19.98
2018-12-31T14:50:33.516Z,22.17
2018-12-31T14:53:02.881Z,21.00
2018-12-31T14:55:51.255Z,21.35
2018-12-31T14:58:22.279Z,20.77
2018-12-31T15:00:51.566Z,18.42
2018-12-31T15:03:20.949Z,20.02
2018-12-31T15:05:50.306Z,20.48
2018-12-31T15:08:20.054Z,21.05
2018-12-31T15:10:49.418Z,20.60
2018-12-31T15:13:18.879Z,23.05
2018-12-31T15:15:48.140Z,23.42
2018-12-31T15:18:17.537Z,25.08
2018-12-31T15:20:47.286Z,19.45
2018-12-31T15:23:16.603Z,21.87
2018-12-31T15:25:45.908Z,21.15
2018-12-31T15:28:15.236Z,19.25
2018-12-31T15:30:44.619Z,21.15
2018-12-31T15:33:14.412Z,22.32
2018-12-31T15:35:43.765Z,21.97
2018-12-31T15:38:13.069Z,22.98
2018-12-31T15:40:42.437Z,23.75
2018-12-31T15:43:11.723Z,22.05
2018-12-31T15:45:40.965Z,19.07
2018-12-31T15:48:10.238Z,20.32
2018-12-31T15:50:40.625Z,20.60
2018-12-31T15:53:09.815Z,22.30
2018-12-31T15:55:39.108Z,21.97
2018-12-31T15:58:08.352Z,20.52
2018-12-31T16:00:37.711Z,19.65
2018-12-31T16:03:07.108Z,21.70
2018-12-31T16:05:36.386Z,18.75
2018-12-31T16:08:05.633Z,22.20
2018-12-31T16:10:34.937Z,21.57
2018-12-31T16:13:04.213Z,19.60
2018-12-31T16:15:33.514Z,21.90
2018-12-31T16:18:02.856Z,20.50
2018-12-31T16:20:32.136Z,21.25
2018-12-31T16:23:01.486Z,21.02
2018-12-31T16:25:30.778Z,18.70
2018-12-31T16:28:00.132Z,19.95
2018-12-31T16:30:29.531Z,18.80
2018-12-31T16:32:58.836Z,19.23
2018-12-31T16:35:28.163Z,19.37
2018-12-31T16:37:57.513Z,17.98
2018-12-31T16:40:29.843Z,18.92
2018-12-31T16:42:59.123Z,17.70
2018-12-31T16:45:29.080Z,17.92
2018-12-31T16:47:58.392Z,19.87
2018-12-31T16:50:27.829Z,18.37
2018-12-31T16:52:57.175Z,18.15
2018-12-31T16:55:26.621Z,19.30
2018-12-31T16:57:56.476Z,19.45
2018-12-31T17:00:25.744Z,18.12
2018-12-31T17:02:55.053Z,17.82
2018-12-31T17:05:24.333Z,19.27
2018-12-31T17:07:55.372Z,20.55
2018-12-31T17:10:25.095Z,19.50
2018-12-31T17:12:54.389Z,17.82
2018-12-31T17:15:23.927Z,20.37
2018-12-31T17:17:53.234Z,21.30
2018-12-31T17:20:22.517Z,18.77
2018-12-31T17:22:52.187Z,20.40
2018-12-31T17:25:21.490Z,22.32
2018-12-31T17:27:50.765Z,22.58
2018-12-31T17:30:20.037Z,23.52
2018-12-31T17:32:49.437Z,26.60
2018-12-31T17:35:18.980Z,25.08
2018-12-31T17:37:48.268Z,21.85
2018-12-31T17:40:17.545Z,24.15
2018-12-31T17:42:46.900Z,24.77
2018-12-31T17:45:22.931Z,26.07
2018-12-31T17:47:47.138Z,24.65
2018-12-31T17:50:16.492Z,24.95
2018-12-31T17:52:45.757Z,23.10
2018-12-31T17:55:15.129Z,27.32
2018-12-31T17:57:44.419Z,34.63
2018-12-31T18:00:13.914Z,30.80
2018-12-31T18:02:43.194Z,34.73
2018-12-31T18:05:12.542Z,33.78
2018-12-31T18:07:41.861Z,33.65
2018-12-31T18:10:11.189Z,34.30
2018-12-31T18:12:40.730Z,33.23
2018-12-31T18:15:10.064Z,32.33
2018-12-31T18:17:39.368Z,34.50
2018-12-31T18:20:09.790Z,30.92
2018-12-31T18:22:39.050Z,36.13
2018-12-31T18:25:08.323Z,32.10
2018-12-31T18:27:37.584Z,31.82
2018-12-31T18:30:08.712Z,32.08
2018-12-31T18:32:38.025Z,32.50
2018-12-31T18:35:07.276Z,39.25
2018-12-31T18:37:41.681Z,34.00
2018-12-31T18:40:07.626Z,30.00
2018-12-31T18:42:36.880Z,32.13
2018-12-31T18:45:06.249Z,32.13
2018-12-31T18:47:35.548Z,32.88
2018-12-31T18:50:05.464Z,34.25
2018-12-31T18:52:34.722Z,33.33
2018-12-31T18:55:04.056Z,33.58
2018-12-31T18:57:33.321Z,34.50
2018-12-31T19:00:02.661Z,33.53
2018-12-31T19:02:31.973Z,37.42
2018-12-31T19:05:01.232Z,37.95
2018-12-31T19:07:30.504Z,38.02
2018-12-31T19:09:59.815Z,36.23
2018-12-31T19:12:29.135Z,34.63
2018-12-31T19:14:58.385Z,36.53
2018-12-31T19:17:27.723Z,35.35
2018-12-31T19:19:57.203Z,36.65
2018-12-31T19:22:26.544Z,37.35
2018-12-31T19:24:55.927Z,33.30
2018-12-31T19:27:25.157Z,37.53
2018-12-31T19:29:54.533Z,37.23
2018-12-31T19:32:23.829Z,38.17
2018-12-31T19:34:53.102Z,34.23
2018-12-31T19:37:22.367Z,38.60
2018-12-31T19:39:51.667Z,34.50
2018-12-31T19:42:20.945Z,38.65
2018-12-31T19:44:50.328Z,40.00
2018-12-31T19:47:19.876Z,41.37
2018-12-31T19:49:49.199Z,40.55
2018-12-31T19:52:18.577Z,39.83
2018-12-31T19:54:48.004Z,40.50
2018-12-31T19:57:17.303Z,35.70
2018-12-31T19:59:46.569Z,37.90
2018-12-31T20:02:15.866Z,40.80
2018-12-31T20:04:45.138Z,43.98
2018-12-31T20:07:14.575Z,46.98
2018-12-31T20:09:43.970Z,41.25
2018-12-31T20:12:13.219Z,41.95
2018-12-31T20:14:42.509Z,35.15
2018-12-31T20:17:11.881Z,36.40
2018-12-31T20:19:41.227Z,37.85
2018-12-31T20:22:10.475Z,38.78
2018-12-31T20:24:39.785Z,35.17
2018-12-31T20:27:09.066Z,37.85
2018-12-31T20:29:38.334Z,37.45
2018-12-31T20:32:07.650Z,34.98
2018-12-31T20:34:36.937Z,33.80
2018-12-31T20:37:06.296Z,37.85
2018-12-31T20:39:35.652Z,35.43
2018-12-31T20:42:05.497Z,33.00
2018-12-31T20:44:34.738Z,36.20
2018-12-31T20:47:04.096Z,38.70
2018-12-31T20:49:33.497Z,33.33
2018-12-31T20:52:02.768Z,36.45
2018-12-31T20:54:32.142Z,32.58
2018-12-31T20:57:01.438Z,37.23
2018-12-31T20:59:30.770Z,32.95
2018-12-31T21:02:00.104Z,35.45
2018-12-31T21:04:29.375Z,34.92
2018-12-31T21:06:58.722Z,37.42
2018-12-31T21:09:28.936Z,32.28
2018-12-31T21:11:58.380Z,34.45
2018-12-31T21:14:27.720Z,33.42
2018-12-31T21:16:57.048Z,34.30
2018-12-31T21:19:26.349Z,31.35
2018-12-31T21:21:55.714Z,32.35
2018-12-31T21:24:24.979Z,30.57
2018-12-31T21:26:54.248Z,32.45
2018-12-31T21:29:23.611Z,32.63
2018-12-31T21:31:52.953Z,33.05
2018-12-31T21:34:22.207Z,33.18
2018-12-31T21:36:51.449Z,31.12
2018-12-31T21:39:20.751Z,33.48
2018-12-31T21:41:49.948Z,32.30
2018-12-31T21:44:19.271Z,33.08
2018-12-31T21:46:48.857Z,33.55
2018-12-31T21:49:18.213Z,35.48
2018-12-31T21:51:47.558Z,35.17
2018-12-31T21:54:16.859Z,37.23
2018-12-31T21:56:46.192Z,37.93
2018-12-31T21:59:15.953Z,35.83
2018-12-31T22:01:45.237Z,36.10
2018-12-31T22:04:14.520Z,37.28
2018-12-31T22:06:44.021Z,36.05
2018-12-31T22:09:14.796Z,36.73
2018-12-31T22:11:44.310Z,33.08
2018-12-31T22:14:13.628Z,35.17
2018-12-31T22:16:42.836Z,33.38
2018-12-31T22:19:12.108Z,44.38
2018-12-31T22:21:41.464Z,39.67
2018-12-31T22:24:11.450Z,35.43
2018-12-31T22:26:40.697Z,37.48
2018-12-31T22:29:09.952Z,35.23
2018-12-31T22:31:39.347Z,30.25
2018-12-31T22:34:08.636Z,37.83
2018-12-31T22:36:38.306Z,36.17
2018-12-31T22:39:07.937Z,36.08
2018-12-31T22:41:37.187Z,35.70
2018-12-31T22:44:06.438Z,33.15
2018-12-31T22:46:35.792Z,33.50
2018-12-31T22:49:05.375Z,32.67
2018-12-31T22:51:34.655Z,32.80
2018-12-31T22:54:03.941Z,27.87
2018-12-31T22:56:33.224Z,30.30
2018-12-31T22:59:02.469Z,30.60
2018-12-31T23:01:32.235Z,29.77
2018-12-31T23:04:01.505Z,44.05
2018-12-31T23:06:30.752Z,37.25
2018-12-31T23:09:00.105Z,42.50
2018-12-31T23:11:29.378Z,40.08
2018-12-31T23:13:59.042Z,38.20
2018-12-31T23:16:28.948Z,41.83
2018-12-31T23:18:58.549Z,37.25
2018-12-31T23:21:27.921Z,36.38
2018-12-31T23:23:57.287Z,33.33
2018-12-31T23:26:26.566Z,32.20
2018-12-31T23:28:55.817Z,29.20
2018-12-31T23:31:25.445Z,28.98
2018-12-31T23:33:55.095Z,21.20
2018-12-31T23:36:24.357Z,22.45
2018-12-31T23:38:53.956Z,21.20
2018-12-31T23:41:23.222Z,22.17
2018-12-31T23:43:52.470Z,21.87
2018-12-31T23:46:21.791Z,20.60
2018-12-31T23:48:51.008Z,22.05
2018-12-31T23:51:20.737Z,22.37
2018-12-31T23:53:51.251Z,23.73
2018-12-31T23:56:20.882Z,23.00
2018-12-31T23:58:50.150Z,20.65
